Terminal Aerodrome Forecast
Issued by NWS Austin/San Antonio, TX

Home | Current Version | Previous Version | Text Only | Print | Product List | Glossary On
Versions: 1 2 3 4 5 6 7 8 9 10 11 12 13 14 15 16 17 18
000
FTUS44 KEWX 301611 AAC
TAFSAT
TAF AMD
KSAT 301611Z 3016/3118 00000KT P6SM FEW250
     FM301800 12008KT P6SM FEW070 SCT250
     FM310800 VRB03KT P6SM FEW070 SCT250=

USA.gov is the U.S. government's official web portal to all federal, state and local government web resources and services.